createdAt,value
2022-11-29T00:01:02.375Z,0.04
2022-11-29T00:03:30.066Z,-0.07
2022-11-29T00:05:57.709Z,-0.03
2022-11-29T00:08:24.693Z,-0.10
2022-11-29T00:10:52.037Z,-0.17
2022-11-29T00:13:19.026Z,-0.11
2022-11-29T00:15:46.042Z,-0.08
2022-11-29T00:18:13.546Z,-0.14
2022-11-29T00:20:40.575Z,-0.25
2022-11-29T00:23:07.638Z,-0.15
2022-11-29T00:25:34.980Z,-0.29
2022-11-29T00:28:01.963Z,-0.19
2022-11-29T00:30:29.026Z,-0.09
2022-11-29T00:32:56.379Z,-0.21
2022-11-29T00:35:23.386Z,-0.16
2022-11-29T00:37:50.395Z,-0.18
2022-11-29T00:40:17.750Z,-0.27
2022-11-29T00:42:44.723Z,-0.25
2022-11-29T00:45:12.204Z,-0.31
2022-11-29T00:47:39.496Z,-0.22
2022-11-29T00:50:07.113Z,-0.30
2022-11-29T00:52:34.119Z,-0.36
2022-11-29T00:55:01.505Z,-0.38
2022-11-29T00:57:28.538Z,-0.22
2022-11-29T00:59:55.523Z,-0.17
2022-11-29T01:02:22.868Z,-0.23
2022-11-29T01:04:49.902Z,-0.31
2022-11-29T01:07:17.016Z,-0.28
2022-11-29T01:09:44.360Z,-0.17
2022-11-29T01:12:11.369Z,-0.13
2022-11-29T01:14:38.428Z,-0.10
2022-11-29T01:17:05.721Z,-0.08
2022-11-29T01:19:32.746Z,-0.12
2022-11-29T01:21:59.753Z,-0.27
2022-11-29T01:24:27.116Z,-0.19
2022-11-29T01:26:54.105Z,-0.12
2022-11-29T01:29:21.084Z,-0.17
2022-11-29T01:31:48.419Z,-0.07
2022-11-29T01:34:15.404Z,-0.01
2022-11-29T01:36:42.400Z,-0.04
2022-11-29T01:39:10.565Z,-0.16
2022-11-29T01:41:37.897Z,-0.12
2022-11-29T01:44:14.075Z,-0.02
2022-11-29T01:46:43.379Z,-0.07
2022-11-29T01:49:12.532Z,-0.01
2022-11-29T01:51:42.748Z,-0.15
2022-11-29T01:54:11.064Z,-0.11
2022-11-29T01:56:38.818Z,-0.18
2022-11-29T01:59:09.030Z,-0.14
2022-11-29T02:01:37.079Z,-0.14
2022-11-29T02:04:04.953Z,-0.08
2022-11-29T02:06:33.271Z,-0.12
2022-11-29T02:09:00.431Z,-0.20
2022-11-29T02:11:47.523Z,-0.05
2022-11-29T02:14:29.110Z,-0.13
2022-11-29T02:17:10.292Z,-0.04
2022-11-29T02:19:59.640Z,-0.01
2022-11-29T02:22:38.384Z,0.01
2022-11-29T02:25:35.859Z,0.07
2022-11-29T02:28:27.796Z,0.01
2022-11-29T02:31:17.410Z,-0.01
2022-11-29T02:34:04.236Z,-0.05
2022-11-29T02:36:46.020Z,-0.11
2022-11-29T02:39:21.648Z,-0.14
2022-11-29T02:42:04.421Z,-0.03
2022-11-29T02:44:58.733Z,-0.04
2022-11-29T02:48:03.404Z,-0.05
2022-11-29T02:50:50.286Z,-0.29
2022-11-29T02:53:23.784Z,-0.15
2022-11-29T02:55:57.264Z,-0.06
2022-11-29T02:59:01.750Z,-0.13
2022-11-29T03:02:12.659Z,-0.07
2022-11-29T03:04:55.236Z,-0.25
2022-11-29T03:07:43.834Z,-0.22
2022-11-29T03:10:22.814Z,-0.21
2022-11-29T03:12:51.508Z,-0.07
2022-11-29T03:15:30.691Z,-0.13
2022-11-29T03:18:02.302Z,-0.32
2022-11-29T03:20:29.472Z,-0.33
2022-11-29T03:22:59.283Z,-0.36
2022-11-29T03:25:39.319Z,-0.29
2022-11-29T03:28:21.200Z,-0.20
2022-11-29T03:31:04.324Z,-0.09
2022-11-29T03:33:49.811Z,-0.13
2022-11-29T03:36:36.995Z,-0.32
2022-11-29T03:39:08.144Z,-0.23
2022-11-29T03:41:44.208Z,-0.16
2022-11-29T03:44:19.071Z,-0.21
2022-11-29T03:47:04.450Z,-0.24
2022-11-29T03:49:38.496Z,-0.29
2022-11-29T03:52:19.229Z,-0.31
2022-11-29T03:55:05.072Z,-0.41
2022-11-29T03:57:55.729Z,-0.36
2022-11-29T04:00:23.280Z,-0.24
2022-11-29T04:03:31.119Z,-0.23
2022-11-29T04:06:19.156Z,-0.10
2022-11-29T04:08:49.918Z,-0.12
2022-11-29T04:11:54.705Z,-0.20
2022-11-29T04:14:30.715Z,-0.33
2022-11-29T04:17:13.067Z,-0.29
2022-11-29T04:20:20.835Z,-0.21
2022-11-29T04:23:07.262Z,-0.38
2022-11-29T04:26:08.517Z,-0.45
2022-11-29T04:29:01.312Z,-0.50
2022-11-29T04:31:55.218Z,-0.69
2022-11-29T04:34:55.989Z,-0.58
2022-11-29T04:37:37.699Z,-0.56
2022-11-29T04:40:18.975Z,-0.34
2022-11-29T04:43:14.511Z,-0.37
2022-11-29T04:46:00.546Z,-0.40
2022-11-29T04:48:27.783Z,-0.49
2022-11-29T04:51:15.725Z,-0.42
2022-11-29T04:54:27.295Z,-0.42
2022-11-29T04:57:01.042Z,-0.22
2022-11-29T04:59:28.282Z,-0.19
2022-11-29T05:02:16.026Z,-0.26
2022-11-29T05:04:47.898Z,-0.17
2022-11-29T05:07:41.862Z,-0.10
2022-11-29T05:10:42.627Z,-0.17
2022-11-29T05:13:29.142Z,-0.31
2022-11-29T05:16:33.143Z,-0.17
2022-11-29T05:19:12.163Z,-0.21
2022-11-29T05:22:04.171Z,-0.24
2022-11-29T05:24:55.576Z,-0.18
2022-11-29T05:27:22.799Z,-0.19
2022-11-29T05:29:54.680Z,-0.13
2022-11-29T05:32:21.569Z,-0.07
2022-11-29T05:35:08.764Z,-0.19
2022-11-29T05:37:49.906Z,-0.22
2022-11-29T05:40:36.183Z,-0.24
2022-11-29T05:43:31.651Z,-0.24
2022-11-29T05:46:12.844Z,-0.12
2022-11-29T05:48:51.899Z,0.01
2022-11-29T05:51:31.206Z,0.25
2022-11-29T05:54:17.174Z,0.06
2022-11-29T05:57:01.702Z,0.04
2022-11-29T05:59:29.838Z,0.16
2022-11-29T06:02:21.700Z,0.14
2022-11-29T06:05:00.955Z,0.50
2022-11-29T06:07:34.316Z,0.66
2022-11-29T06:10:17.682Z,0.25
2022-11-29T06:13:10.979Z,0.31
2022-11-29T06:15:56.790Z,-0.06
2022-11-29T06:18:44.665Z,0.38
2022-11-29T06:21:17.703Z,-0.01
2022-11-29T06:24:34.451Z,0.21
2022-11-29T06:27:10.867Z,0.03
2022-11-29T06:30:09.857Z,-0.23
2022-11-29T06:32:57.880Z,-0.42
2022-11-29T06:35:36.102Z,-0.54
2022-11-29T06:38:10.122Z,-0.36
2022-11-29T06:40:37.527Z,-0.33
2022-11-29T06:43:05.125Z,-0.44
2022-11-29T06:45:32.575Z,-0.51
2022-11-29T06:48:04.756Z,-0.37
2022-11-29T06:50:38.061Z,-0.23
2022-11-29T06:53:31.084Z,-0.30
2022-11-29T06:56:34.933Z,-0.21
2022-11-29T06:59:24.849Z,-0.19
2022-11-29T07:01:55.233Z,-0.12
2022-11-29T07:04:45.760Z,-0.19
2022-11-29T07:07:21.164Z,-0.22
2022-11-29T07:09:50.115Z,-0.31
2022-11-29T07:12:18.101Z,-0.25
2022-11-29T07:14:45.965Z,-0.28
2022-11-29T07:17:39.815Z,-0.29
2022-11-29T07:20:09.797Z,-0.32
2022-11-29T07:23:04.722Z,-0.41
2022-11-29T07:25:50.818Z,-0.17
2022-11-29T07:28:20.471Z,-0.08
2022-11-29T07:30:57.371Z,-0.10
2022-11-29T07:34:08.985Z,0.09
2022-11-29T07:37:15.770Z,-0.07
2022-11-29T07:39:54.292Z,-0.15
2022-11-29T07:42:49.761Z,-0.02
2022-11-29T07:45:37.653Z,0.02
2022-11-29T07:48:05.333Z,-0.02
2022-11-29T07:50:32.889Z,0.06
2022-11-29T07:53:00.117Z,0.24
2022-11-29T07:55:29.643Z,0.19
2022-11-29T07:57:56.665Z,0.19
2022-11-29T08:00:23.851Z,0.25
2022-11-29T08:02:51.378Z,0.42
2022-11-29T08:05:20.868Z,0.30
2022-11-29T08:07:47.954Z,0.13
2022-11-29T08:10:16.559Z,0.09
2022-11-29T08:12:45.637Z,0.22
2022-11-29T08:15:12.971Z,0.37
2022-11-29T08:17:40.716Z,0.33
2022-11-29T08:20:09.831Z,0.35
2022-11-29T08:22:37.014Z,0.24
2022-11-29T08:25:05.342Z,0.47
2022-11-29T08:27:32.352Z,0.60
2022-11-29T08:29:59.453Z,0.66
2022-11-29T08:32:27.268Z,0.79
2022-11-29T08:34:54.536Z,0.73
2022-11-29T08:37:21.543Z,0.53
2022-11-29T08:39:48.984Z,0.59
2022-11-29T08:42:16.041Z,0.60
2022-11-29T08:44:43.311Z,0.48
2022-11-29T08:47:29.739Z,0.56
2022-11-29T08:50:02.457Z,0.60
2022-11-29T08:52:53.989Z,0.75
2022-11-29T08:55:22.821Z,0.45
2022-11-29T08:57:51.465Z,0.49
2022-11-29T09:00:21.260Z,0.48
2022-11-29T09:02:48.609Z,0.49
2022-11-29T09:05:15.936Z,0.44
2022-11-29T09:07:43.333Z,0.60
2022-11-29T09:10:11.357Z,0.59
2022-11-29T09:12:39.830Z,0.83
2022-11-29T09:15:09.010Z,0.72
2022-11-29T09:17:36.224Z,0.79
2022-11-29T09:20:04.725Z,0.77
2022-11-29T09:22:31.773Z,0.74
2022-11-29T09:24:58.777Z,0.76
2022-11-29T09:27:26.099Z,0.89
2022-11-29T09:29:53.100Z,1.05
2022-11-29T09:32:20.111Z,1.16
2022-11-29T09:34:47.711Z,1.34
2022-11-29T09:37:14.958Z,1.35
2022-11-29T09:39:42.023Z,1.57
2022-11-29T09:42:19.665Z,1.43
2022-11-29T09:44:59.395Z,1.51
2022-11-29T09:47:58.047Z,1.32
2022-11-29T09:50:31.269Z,1.42
2022-11-29T09:53:38.729Z,1.31
2022-11-29T09:56:28.700Z,1.56
2022-11-29T09:59:01.462Z,1.89
2022-11-29T10:01:31.980Z,1.95
2022-11-29T10:04:05.211Z,2.12
2022-11-29T10:06:45.921Z,2.16
2022-11-29T10:09:33.685Z,1.94
2022-11-29T10:12:12.969Z,1.81
2022-11-29T10:14:52.694Z,2.23
2022-11-29T10:17:39.456Z,2.46
2022-11-29T10:20:13.627Z,2.57
2022-11-29T10:22:45.409Z,2.22
2022-11-29T10:25:21.828Z,2.17
2022-11-29T10:27:48.900Z,2.24
2022-11-29T10:30:17.179Z,2.11
2022-11-29T10:32:46.000Z,2.11
2022-11-29T10:35:16.051Z,2.18
2022-11-29T10:37:52.231Z,2.03
2022-11-29T10:40:34.158Z,1.71
2022-11-29T10:43:01.669Z,1.64
2022-11-29T10:45:34.345Z,1.71
2022-11-29T10:48:19.040Z,1.78
2022-11-29T10:50:49.106Z,1.97
2022-11-29T10:53:20.016Z,2.29
2022-11-29T10:55:53.264Z,2.40
2022-11-29T10:58:28.233Z,2.36
2022-11-29T11:01:06.906Z,2.38
2022-11-29T11:03:41.205Z,2.47
2022-11-29T11:06:17.681Z,2.50
2022-11-29T11:08:52.208Z,2.45
2022-11-29T11:11:25.378Z,2.33
2022-11-29T11:14:08.140Z,2.38
2022-11-29T11:16:37.557Z,2.35
2022-11-29T11:19:29.912Z,2.41
2022-11-29T11:21:58.646Z,2.30
2022-11-29T11:24:46.361Z,2.58
2022-11-29T11:27:13.649Z,2.40
2022-11-29T11:29:42.645Z,2.30
2022-11-29T11:32:18.885Z,2.13
2022-11-29T11:35:00.834Z,1.95
2022-11-29T11:37:31.451Z,2.11
2022-11-29T11:40:20.618Z,2.05
2022-11-29T11:42:47.692Z,2.25
2022-11-29T11:45:15.087Z,2.53
2022-11-29T11:47:53.192Z,2.73
2022-11-29T11:50:34.115Z,2.84
2022-11-29T11:53:29.934Z,2.76
2022-11-29T11:56:04.454Z,2.70
2022-11-29T11:58:32.093Z,2.57
2022-11-29T12:01:08.403Z,2.24
2022-11-29T12:03:45.779Z,2.16
2022-11-29T12:06:24.838Z,2.34
2022-11-29T12:09:01.992Z,2.25
2022-11-29T12:11:34.005Z,2.15
2022-11-29T12:14:02.291Z,2.42
2022-11-29T12:16:35.542Z,2.61
2022-11-29T12:19:20.789Z,2.44
2022-11-29T12:21:52.563Z,2.42
2022-11-29T12:24:26.555Z,2.64
2022-11-29T12:26:57.359Z,2.79
2022-11-29T12:29:31.900Z,2.82
2022-11-29T12:32:07.757Z,2.73
2022-11-29T12:35:08.961Z,2.71
2022-11-29T12:37:43.837Z,2.78
2022-11-29T12:40:45.304Z,2.55
2022-11-29T12:43:24.841Z,2.55
2022-11-29T12:46:02.213Z,2.56
2022-11-29T12:48:42.593Z,2.39
2022-11-29T12:51:24.615Z,2.41
2022-11-29T12:54:30.188Z,2.34
2022-11-29T12:57:04.784Z,2.51
2022-11-29T12:59:50.157Z,2.51
2022-11-29T13:02:44.965Z,2.49
2022-11-29T13:05:37.513Z,2.45
2022-11-29T13:08:25.988Z,2.15
2022-11-29T13:11:37.424Z,2.51
2022-11-29T13:14:42.010Z,2.47
2022-11-29T13:17:26.275Z,2.56
2022-11-29T13:20:00.320Z,2.49
2022-11-29T13:22:44.297Z,2.31
2022-11-29T13:25:19.081Z,2.31
2022-11-29T13:28:01.857Z,2.27
2022-11-29T13:30:29.158Z,2.26
2022-11-29T13:33:03.900Z,2.33
2022-11-29T13:36:01.692Z,2.31
2022-11-29T13:38:41.937Z,2.31
2022-11-29T13:41:23.225Z,2.44
2022-11-29T13:44:04.306Z,2.45
2022-11-29T13:47:02.968Z,2.26
2022-11-29T13:49:50.139Z,2.20
2022-11-29T13:52:39.497Z,2.28
2022-11-29T13:55:12.520Z,2.09
2022-11-29T14:00:44.664Z,2.07
2022-11-29T14:03:24.107Z,1.82
2022-11-29T14:06:30.733Z,1.89
2022-11-29T14:09:20.353Z,1.90
2022-11-29T14:12:01.661Z,1.91
2022-11-29T14:14:52.210Z,2.03
2022-11-29T14:18:16.752Z,2.07
2022-11-29T14:20:53.377Z,2.01
2022-11-29T14:23:41.756Z,2.08
2022-11-29T14:26:08.964Z,2.08
2022-11-29T14:28:40.934Z,1.99
2022-11-29T14:31:09.607Z,1.76
2022-11-29T14:33:54.980Z,1.72
2022-11-29T14:36:49.640Z,1.67
2022-11-29T14:39:42.978Z,1.73
2022-11-29T14:42:21.589Z,1.80
2022-11-29T14:44:51.659Z,1.86
2022-11-29T14:47:21.705Z,1.77
2022-11-29T14:49:48.856Z,1.69
2022-11-29T14:52:15.822Z,1.87
2022-11-29T14:54:59.789Z,1.99
2022-11-29T14:57:54.973Z,1.87
2022-11-29T15:00:28.023Z,1.74
2022-11-29T15:03:09.603Z,1.75
2022-11-29T15:05:57.686Z,1.67
2022-11-29T15:08:57.920Z,1.61
2022-11-29T15:11:45.038Z,1.42
2022-11-29T15:14:37.621Z,1.47
2022-11-29T15:17:21.692Z,1.36
2022-11-29T15:19:59.097Z,1.36
2022-11-29T15:22:45.137Z,1.39
2022-11-29T15:25:19.837Z,1.36
2022-11-29T15:27:57.726Z,1.32
2022-11-29T15:30:38.899Z,1.31
2022-11-29T15:33:08.161Z,1.37
2022-11-29T15:35:36.038Z,1.31
2022-11-29T15:38:03.225Z,1.31
2022-11-29T15:40:36.315Z,1.23
2022-11-29T15:43:23.474Z,1.17
2022-11-29T15:45:55.605Z,1.23
2022-11-29T15:48:32.785Z,1.30
2022-11-29T15:51:24.260Z,1.28
2022-11-29T15:54:12.744Z,1.32
2022-11-29T15:56:48.836Z,1.37
2022-11-29T15:59:30.751Z,1.31
2022-11-29T16:02:01.645Z,1.37
2022-11-29T16:04:29.556Z,1.44
2022-11-29T16:06:56.993Z,1.55
2022-11-29T16:09:55.135Z,1.63
2022-11-29T16:12:22.531Z,1.57
2022-11-29T16:14:53.036Z,1.63
2022-11-29T16:17:20.922Z,1.55
2022-11-29T16:19:48.700Z,1.60
2022-11-29T16:22:22.579Z,1.58
2022-11-29T16:25:01.035Z,1.51
2022-11-29T16:27:31.403Z,1.58
2022-11-29T16:29:58.837Z,1.49
2022-11-29T16:32:35.773Z,1.72
2022-11-29T16:35:24.524Z,1.71
2022-11-29T16:37:51.578Z,1.48
2022-11-29T16:40:30.141Z,1.49
2022-11-29T16:43:23.997Z,1.58
2022-11-29T16:46:20.535Z,1.51
2022-11-29T16:48:50.987Z,1.58
2022-11-29T16:51:27.325Z,1.42
2022-11-29T16:53:54.473Z,1.44
2022-11-29T16:56:24.427Z,1.38
2022-11-29T16:59:24.985Z,1.41
2022-11-29T17:01:43.179Z,1.35
2022-11-29T17:04:10.287Z,1.34
2022-11-29T17:06:37.853Z,1.36
2022-11-29T17:09:05.746Z,1.45
2022-11-29T17:11:32.923Z,1.37
2022-11-29T17:13:59.943Z,1.49
2022-11-29T17:16:27.323Z,1.51
2022-11-29T17:18:54.464Z,1.49
2022-11-29T17:21:26.129Z,1.45
2022-11-29T17:23:53.931Z,1.45
2022-11-29T17:26:21.799Z,1.40
2022-11-29T17:28:50.328Z,1.36
2022-11-29T17:31:20.427Z,1.28
2022-11-29T17:33:47.932Z,1.22
2022-11-29T17:36:17.791Z,1.24
2022-11-29T17:38:45.828Z,1.23
2022-11-29T17:41:18.105Z,1.24
2022-11-29T17:43:45.377Z,1.27
2022-11-29T17:46:27.771Z,1.21
2022-11-29T17:48:55.392Z,1.29
2022-11-29T17:54:11.524Z,1.40
2022-11-29T17:56:38.662Z,1.42
2022-11-29T17:59:06.011Z,1.37
2022-11-29T18:01:34.809Z,1.47
2022-11-29T18:04:04.127Z,1.39
2022-11-29T18:06:39.377Z,1.42
2022-11-29T18:09:09.123Z,1.47
2022-11-29T18:11:46.384Z,1.47
2022-11-29T18:14:16.224Z,1.57
2022-11-29T18:16:45.213Z,1.52
2022-11-29T18:19:14.987Z,1.65
2022-11-29T18:21:42.800Z,1.44
2022-11-29T18:24:10.162Z,1.44
2022-11-29T18:26:37.824Z,1.45
2022-11-29T18:29:13.287Z,1.56
2022-11-29T18:31:42.315Z,1.59
2022-11-29T18:34:10.897Z,1.44
2022-11-29T18:36:43.593Z,1.44
2022-11-29T18:39:15.754Z,1.57
2022-11-29T18:41:44.431Z,1.66
2022-11-29T18:44:13.795Z,1.68
2022-11-29T18:46:43.140Z,1.61
2022-11-29T18:49:13.003Z,1.48
2022-11-29T18:51:42.829Z,1.50
2022-11-29T18:54:10.255Z,1.45
2022-11-29T18:56:37.913Z,1.53
2022-11-29T18:59:14.625Z,1.63
2022-11-29T19:01:42.698Z,1.56
2022-11-29T19:04:13.999Z,1.50
2022-11-29T19:06:41.969Z,1.55
2022-11-29T19:09:13.709Z,1.49
2022-11-29T19:11:40.962Z,1.63
2022-11-29T19:14:11.704Z,1.67
2022-11-29T19:16:44.363Z,1.72
2022-11-29T19:19:12.074Z,1.72
2022-11-29T19:21:40.102Z,1.75
2022-11-29T19:24:13.778Z,1.80
2022-11-29T19:26:44.496Z,1.80
2022-11-29T19:29:12.904Z,1.80
2022-11-29T19:31:40.077Z,1.81
2022-11-29T19:34:07.530Z,1.85
2022-11-29T19:36:34.546Z,1.83
2022-11-29T19:39:02.157Z,1.84
2022-11-29T19:41:34.174Z,1.85
2022-11-29T19:44:03.584Z,1.81
2022-11-29T19:46:33.186Z,1.75
2022-11-29T19:49:01.341Z,1.64
2022-11-29T19:51:29.810Z,1.70
2022-11-29T19:54:05.223Z,1.73
2022-11-29T19:56:32.715Z,1.72
2022-11-29T19:59:00.014Z,1.73
2022-11-29T20:01:37.908Z,1.78
2022-11-29T20:04:07.788Z,1.70
2022-11-29T20:06:35.211Z,1.78
2022-11-29T20:09:02.488Z,1.77
2022-11-29T20:11:30.439Z,1.73
2022-11-29T20:13:59.531Z,1.73
2022-11-29T20:16:27.657Z,1.70
2022-11-29T20:18:55.108Z,1.66
2022-11-29T20:21:27.413Z,1.76
2022-11-29T20:23:56.877Z,1.70
2022-11-29T20:26:24.616Z,1.67
2022-11-29T20:28:52.003Z,1.63
2022-11-29T20:31:22.641Z,1.65
2022-11-29T20:33:52.078Z,1.65
2022-11-29T20:36:37.840Z,1.65
2022-11-29T20:39:35.396Z,1.63
2022-11-29T20:42:36.656Z,1.68
2022-11-29T20:45:09.004Z,1.76
2022-11-29T20:47:47.897Z,1.74
2022-11-29T20:50:26.846Z,1.80
2022-11-29T20:53:18.187Z,1.77
2022-11-29T20:55:48.279Z,1.82
2022-11-29T20:58:16.899Z,1.82
2022-11-29T21:00:44.191Z,1.78
2022-11-29T21:03:15.735Z,1.84
2022-11-29T21:05:43.552Z,1.86
2022-11-29T21:08:10.674Z,1.85
2022-11-29T21:10:37.658Z,1.87
2022-11-29T21:13:05.187Z,1.94
2022-11-29T21:15:32.672Z,1.94
2022-11-29T21:18:00.231Z,2.04
2022-11-29T21:20:27.792Z,2.06
2022-11-29T21:23:10.838Z,2.01
2022-11-29T21:25:50.181Z,2.01
2022-11-29T21:28:17.495Z,2.03
2022-11-29T21:30:45.131Z,2.02
2022-11-29T21:33:12.380Z,2.03
2022-11-29T21:35:39.908Z,2.08
2022-11-29T21:38:13.105Z,2.07
2022-11-29T21:40:40.178Z,2.10
2022-11-29T21:43:07.465Z,2.18
2022-11-29T21:45:34.449Z,2.15
2022-11-29T21:48:01.579Z,2.13
2022-11-29T21:50:28.963Z,2.15
2022-11-29T21:52:56.330Z,2.16
2022-11-29T21:55:30.031Z,2.21
2022-11-29T21:57:59.227Z,2.16
2022-11-29T22:00:26.216Z,2.22
2022-11-29T22:02:53.580Z,2.27
2022-11-29T22:05:20.732Z,2.30
2022-11-29T22:07:47.802Z,2.26
2022-11-29T22:10:15.143Z,2.28
2022-11-29T22:12:51.296Z,2.29
2022-11-29T22:15:24.462Z,2.30
2022-11-29T22:17:53.330Z,2.36
2022-11-29T22:20:20.677Z,2.31
2022-11-29T22:22:48.646Z,2.31
2022-11-29T22:25:15.869Z,2.29
2022-11-29T22:27:43.158Z,2.31
2022-11-29T22:30:10.591Z,2.33
2022-11-29T22:32:37.582Z,2.32
2022-11-29T22:35:05.177Z,2.34
2022-11-29T22:37:32.161Z,2.33
2022-11-29T22:39:59.159Z,2.34
2022-11-29T22:42:26.426Z,2.35
2022-11-29T22:44:53.403Z,2.37
2022-11-29T22:47:20.517Z,2.41
2022-11-29T22:49:49.388Z,2.39
2022-11-29T22:52:16.387Z,2.41
2022-11-29T22:54:45.250Z,2.39
2022-11-29T22:57:12.801Z,2.38
2022-11-29T22:59:39.784Z,2.30
2022-11-29T23:02:06.801Z,2.25
2022-11-29T23:04:34.107Z,2.18
2022-11-29T23:07:01.106Z,2.22
2022-11-29T23:09:28.112Z,2.25
2022-11-29T23:11:56.340Z,2.25
2022-11-29T23:14:23.857Z,2.29
2022-11-29T23:16:51.347Z,2.31
2022-11-29T23:19:19.259Z,2.30
2022-11-29T23:21:46.550Z,2.34
2022-11-29T23:24:14.726Z,2.36
2022-11-29T23:26:44.977Z,2.41
2022-11-29T23:29:15.064Z,2.42
2022-11-29T23:31:42.867Z,2.39
2022-11-29T23:34:09.960Z,2.43
2022-11-29T23:36:37.010Z,2.46
2022-11-29T23:39:05.696Z,2.45
2022-11-29T23:41:33.608Z,2.51
2022-11-29T23:44:03.589Z,2.54
2022-11-29T23:46:30.843Z,2.53
2022-11-29T23:48:57.844Z,2.58
2022-11-29T23:51:24.827Z,2.63
2022-11-29T23:53:53.032Z,2.64
2022-11-29T23:56:20.734Z,2.62
2022-11-29T23:58:48.277Z,2.60
